Check out our new BloomSky Weather System.

Active alerts


No alerts


Thunder radar  blitzortung!


Rain radar more information rain snow radar


Visit our other weather sites:

Template documentation
and downloads

And another site



Weather Underground History page Text

Daily Summary for March 22, 2017 Units:  English    Metric   Both
« Previous Day
Next Day »
Daily Weekly Monthly Yearly Custom
  High: Low: Average:
Temperature: 85.5 °F 62.4 °F 73.9 °F
Dew Point: 70.3 °F 59.9 °F 64.6 °F
Humidity: 99 % 44 % 76 %
Wind Speed: 11.0 mph 0.0 mph 2.8 mph
Wind Gust: 15.0 mph - -
Wind:- - South
Pressure: 30.16 in 30.05 in -
Precipitation: 0.00 in    
Historical Graphs
 
 
Tabular Data for March 22, 2017
Time Temperature Dew Point Pressure Wind Wind Speed Wind Gust Humidity Rainfall Rate (Hourly)
00:02 69.6 °F 65.8 °F 30.08 in SSE 1.0 mph 6.0 mph 88 % 0.00 in
00:07 69.4 °F 65.7 °F 30.08 in SE 2.0 mph 5.0 mph 88 % 0.00 in
00:12 69.3 °F 65.8 °F 30.07 in SSE 2.0 mph 6.0 mph 89 % 0.00 in
00:17 69.3 °F 65.8 °F 30.07 in SSE 3.0 mph 6.0 mph 89 % 0.00 in
00:22 69.3 °F 65.8 °F 30.07 in SE 2.0 mph 6.0 mph 89 % 0.00 in
00:27 69.1 °F 66.0 °F 30.07 in SSE 3.0 mph 6.0 mph 90 % 0.00 in
00:32 69.1 °F 66.0 °F 30.07 in SSE 2.0 mph 6.0 mph 90 % 0.00 in
00:37 69.1 °F 66.0 °F 30.07 in SSE 2.0 mph 6.0 mph 90 % 0.00 in
00:42 68.9 °F 66.2 °F 30.07 in ESE 2.0 mph 6.0 mph 91 % 0.00 in
00:47 68.7 °F 66.0 °F 30.07 in South 5.0 mph 6.0 mph 91 % 0.00 in
00:52 68.9 °F 66.2 °F 30.07 in South 3.0 mph 6.0 mph 91 % 0.00 in
00:57 68.7 °F 66.0 °F 30.07 in SSE 3.0 mph 6.0 mph 91 % 0.00 in
01:02 68.7 °F 66.4 °F 30.07 in South 3.0 mph 7.0 mph 92 % 0.00 in
01:07 68.7 °F 66.4 °F 30.07 in South 1.0 mph 7.0 mph 92 % 0.00 in
01:12 68.5 °F 66.2 °F 30.07 in SE 3.0 mph 7.0 mph 92 % 0.00 in
01:17 68.5 °F 66.2 °F 30.07 in South 1.0 mph 7.0 mph 92 % 0.00 in
01:22 68.5 °F 66.4 °F 30.07 in SSW 2.0 mph 5.0 mph 93 % 0.00 in
01:27 68.4 °F 66.2 °F 30.07 in SSE 1.0 mph 5.0 mph 93 % 0.00 in
01:32 68.4 °F 66.2 °F 30.07 in SSE 2.0 mph 5.0 mph 93 % 0.00 in
01:37 68.4 °F 66.2 °F 30.07 in SSE 2.0 mph 5.0 mph 93 % 0.00 in
01:42 68.4 °F 66.2 °F 30.07 in South 3.0 mph 6.0 mph 93 % 0.00 in
01:47 68.2 °F 66.0 °F 30.07 in SSE 4.0 mph 6.0 mph 93 % 0.00 in
01:52 68.2 °F 66.4 °F 30.07 in SE 2.0 mph 6.0 mph 94 % 0.00 in
01:57 68.2 °F 66.4 °F 30.07 in SSE 5.0 mph 6.0 mph 94 % 0.00 in
02:02 68.2 °F 66.4 °F 30.07 in SW 2.0 mph 6.0 mph 94 % 0.00 in
02:07 68.0 °F 66.2 °F 30.07 in South 3.0 mph 6.0 mph 94 % 0.00 in
02:12 67.8 °F 66.0 °F 30.07 in South 2.0 mph 5.0 mph 94 % 0.00 in
02:17 67.8 °F 66.0 °F 30.07 in SE 1.0 mph 4.0 mph 94 % 0.00 in
02:22 67.6 °F 65.8 °F 30.07 in SSE 1.0 mph 4.0 mph 94 % 0.00 in
02:27 67.6 °F 65.8 °F 30.06 in SSE 4.0 mph 4.0 mph 94 % 0.00 in
02:32 67.6 °F 66.2 °F 30.06 in ESE 1.0 mph 4.0 mph 95 % 0.00 in
02:37 67.5 °F 65.7 °F 30.06 in South 1.0 mph 4.0 mph 94 % 0.00 in
02:42 67.5 °F 66.0 °F 30.06 in SSW 2.0 mph 5.0 mph 95 % 0.00 in
02:47 67.5 °F 66.0 °F 30.06 in ESE 2.0 mph 5.0 mph 95 % 0.00 in
02:52 67.5 °F 66.0 °F 30.06 in SE 2.0 mph 5.0 mph 95 % 0.00 in
02:57 67.5 °F 66.0 °F 30.06 in SSE 1.0 mph 5.0 mph 95 % 0.00 in
03:02 67.3 °F 65.8 °F 30.06 in South 2.0 mph 5.0 mph 95 % 0.00 in
03:07 67.3 °F 65.8 °F 30.06 in SSE 3.0 mph 5.0 mph 95 % 0.00 in
03:12 67.3 °F 65.8 °F 30.06 in SE 1.0 mph 5.0 mph 95 % 0.00 in
03:17 67.3 °F 65.8 °F 30.06 in SSE 1.0 mph 5.0 mph 95 % 0.00 in
03:22 67.1 °F 65.7 °F 30.06 in South 4.0 mph 5.0 mph 95 % 0.00 in
03:27 66.9 °F 65.5 °F 30.06 in SSW 2.0 mph 4.0 mph 95 % 0.00 in
03:32 66.9 °F 65.5 °F 30.06 in South 1.0 mph 4.0 mph 95 % 0.00 in
03:37 66.9 °F 65.7 °F 30.05 in Calm   4.0 mph 96 % 0.00 in
03:42 66.7 °F 65.5 °F 30.06 in SSW 1.0 mph 3.0 mph 96 % 0.00 in
03:47 66.7 °F 65.5 °F 30.05 in Calm   3.0 mph 96 % 0.00 in
03:52 66.7 °F 65.5 °F 30.05 in SSE 2.0 mph 3.0 mph 96 % 0.00 in
03:57 66.7 °F 65.5 °F 30.05 in SSE 1.0 mph 4.0 mph 96 % 0.00 in
04:02 66.6 °F 65.3 °F 30.05 in SSE 1.0 mph 4.0 mph 96 % 0.00 in
04:07 66.6 °F 65.3 °F 30.05 in South 2.0 mph 4.0 mph 96 % 0.00 in
04:12 66.4 °F 65.1 °F 30.05 in SSW 1.0 mph 3.0 mph 96 % 0.00 in
04:17 66.4 °F 65.1 °F 30.05 in SSW 1.0 mph 3.0 mph 96 % 0.00 in
04:22 66.2 °F 64.9 °F 30.05 in SSW 1.0 mph 3.0 mph 96 % 0.00 in
04:27 66.2 °F 64.9 °F 30.05 in SW 1.0 mph 2.0 mph 96 % 0.00 in
04:32 66.0 °F 64.8 °F 30.05 in South 1.0 mph 2.0 mph 96 % 0.00 in
04:38 66.0 °F 65.1 °F 30.06 in Calm   2.0 mph 97 % 0.00 in
04:43 65.8 °F 64.6 °F 30.06 in Calm   2.0 mph 96 % 0.00 in
04:47 65.5 °F 64.2 °F 30.06 in Calm   2.0 mph 96 % 0.00 in
04:53 65.1 °F 64.2 °F 30.06 in Calm   2.0 mph 97 % 0.00 in
04:58 65.1 °F 64.2 °F 30.06 in Calm     97 % 0.00 in
05:03 64.9 °F 63.9 °F 30.06 in Calm     96 % 0.00 in
05:08 64.4 °F 63.3 °F 30.06 in Calm     96 % 0.00 in
05:13 64.2 °F 63.3 °F 30.05 in Calm     97 % 0.00 in
05:18 64.0 °F 63.1 °F 30.06 in Calm     97 % 0.00 in
05:23 64.2 °F 63.3 °F 30.06 in Calm     97 % 0.00 in
05:28 64.0 °F 63.1 °F 30.06 in Calm     97 % 0.00 in
05:33 63.9 °F 63.0 °F 30.06 in Calm     97 % 0.00 in
05:38 63.5 °F 62.6 °F 30.06 in Calm     97 % 0.00 in
05:43 63.3 °F 62.4 °F 30.05 in Calm     97 % 0.00 in
05:48 63.3 °F 62.4 °F 30.06 in Calm     97 % 0.00 in
05:53 63.1 °F 62.2 °F 30.06 in Calm     97 % 0.00 in
05:58 63.0 °F 62.1 °F 30.05 in Calm     97 % 0.00 in
06:03 62.8 °F 61.9 °F 30.05 in Calm     97 % 0.00 in
06:08 62.8 °F 61.9 °F 30.05 in Calm     97 % 0.00 in
06:13 62.6 °F 61.7 °F 30.05 in Calm     97 % 0.00 in
06:18 62.4 °F 61.5 °F 30.05 in Calm     97 % 0.00 in
06:23 62.4 °F 61.5 °F 30.05 in Calm     97 % 0.00 in
06:28 62.4 °F 61.9 °F 30.05 in Calm     98 % 0.00 in
06:33 62.8 °F 62.2 °F 30.05 in Calm     98 % 0.00 in
06:38 62.8 °F 62.2 °F 30.05 in Calm     98 % 0.00 in
06:43 62.8 °F 62.2 °F 30.05 in Calm     98 % 0.00 in
06:48 62.6 °F 62.1 °F 30.06 in Calm     98 % 0.00 in
06:53 62.8 °F 62.2 °F 30.06 in Calm     98 % 0.00 in
06:58 62.4 °F 61.9 °F 30.06 in Calm     98 % 0.00 in
07:03 62.4 °F 61.9 °F 30.07 in Calm     98 % 0.00 in
07:08 62.4 °F 61.9 °F 30.07 in Calm     98 % 0.00 in
07:13 62.4 °F 61.9 °F 30.07 in Calm     98 % 0.00 in
07:18 62.4 °F 61.9 °F 30.08 in Calm   1.0 mph 98 % 0.00 in
07:23 62.6 °F 62.1 °F 30.08 in Calm   1.0 mph 98 % 0.00 in
07:28 63.0 °F 62.4 °F 30.09 in Calm   1.0 mph 98 % 0.00 in
07:33 63.1 °F 62.6 °F 30.09 in Calm   1.0 mph 98 % 0.00 in
07:38 63.3 °F 62.8 °F 30.09 in Calm   1.0 mph 98 % 0.00 in
07:43 63.5 °F 63.0 °F 30.09 in Calm   1.0 mph 98 % 0.00 in
07:48 63.7 °F 63.1 °F 30.09 in ESE 1.0 mph 1.0 mph 98 % 0.00 in
07:53 63.9 °F 63.3 °F 30.09 in Calm   1.0 mph 98 % 0.00 in
07:58 63.9 °F 63.3 °F 30.09 in Calm   1.0 mph 98 % 0.00 in
08:03 64.0 °F 63.5 °F 30.10 in Calm   1.0 mph 98 % 0.00 in
08:08 64.6 °F 64.0 °F 30.10 in Calm   1.0 mph 98 % 0.00 in
08:13 64.9 °F 64.4 °F 30.11 in North 1.0 mph 1.0 mph 98 % 0.00 in
08:18 65.5 °F 65.1 °F 30.11 in Calm   1.0 mph 99 % 0.00 in
08:23 65.8 °F 65.5 °F 30.11 in Calm   1.0 mph 99 % 0.00 in
08:28 66.0 °F 65.5 °F 30.11 in Calm   1.0 mph 98 % 0.00 in
08:33 66.0 °F 65.5 °F 30.12 in Calm   1.0 mph 98 % 0.00 in
08:38 66.2 °F 65.7 °F 30.12 in Calm   1.0 mph 98 % 0.00 in
08:43 66.4 °F 65.8 °F 30.12 in Calm   1.0 mph 98 % 0.00 in
08:48 66.7 °F 66.2 °F 30.12 in Calm   1.0 mph 98 % 0.00 in
08:53 67.8 °F 67.5 °F 30.13 in Calm   1.0 mph 99 % 0.00 in
08:58 68.2 °F 67.6 °F 30.13 in Calm   1.0 mph 98 % 0.00 in
09:03 68.2 °F 67.6 °F 30.13 in Calm   1.0 mph 98 % 0.00 in
09:08 68.0 °F 67.5 °F 30.13 in Calm   1.0 mph 98 % 0.00 in
09:14 67.8 °F 66.9 °F 30.14 in Calm   1.0 mph 97 % 0.00 in
09:18 68.4 °F 67.8 °F 30.14 in Calm   1.0 mph 98 % 0.00 in
09:23 69.6 °F 69.3 °F 30.14 in Calm   1.0 mph 99 % 0.00 in
09:29 70.3 °F 69.4 °F 30.14 in NW 2.0 mph 2.0 mph 97 % 0.00 in
09:34 70.9 °F 70.0 °F 30.14 in Calm   2.0 mph 97 % 0.00 in
09:39 71.1 °F 69.8 °F 30.15 in West 1.0 mph 2.0 mph 96 % 0.00 in
09:44 71.2 °F 69.8 °F 30.15 in WSW 1.0 mph 2.0 mph 95 % 0.00 in
09:49 71.4 °F 69.6 °F 30.15 in Calm   2.0 mph 94 % 0.00 in
09:54 72.1 °F 70.3 °F 30.15 in Calm   2.0 mph 94 % 0.00 in
09:59 72.5 °F 70.0 °F 30.16 in SSW 3.0 mph 3.0 mph 92 % 0.00 in
10:04 72.1 °F 69.1 °F 30.16 in SW 2.0 mph 4.0 mph 90 % 0.00 in
10:09 72.1 °F 69.1 °F 30.16 in SSE 3.0 mph 4.0 mph 90 % 0.00 in
10:14 72.3 °F 68.5 °F 30.16 in South 4.0 mph 5.0 mph 88 % 0.00 in
10:19 72.7 °F 68.9 °F 30.15 in SSE 4.0 mph 6.0 mph 88 % 0.00 in
10:24 73.2 °F 68.4 °F 30.15 in SSE 5.0 mph 6.0 mph 85 % 0.00 in
10:29 73.8 °F 68.9 °F 30.15 in SSE 2.0 mph 7.0 mph 85 % 0.00 in
10:39 74.8 °F 68.2 °F 30.15 in SSW 5.0 mph 11.0 mph 80 % 0.00 in
10:44 75.0 °F 67.3 °F 30.15 in SSW 3.0 mph 11.0 mph 77 % 0.00 in
10:49 75.7 °F 68.4 °F 30.15 in SW 1.0 mph 11.0 mph 78 % 0.00 in
10:54 76.6 °F 68.2 °F 30.15 in SSE 2.0 mph 10.0 mph 75 % 0.00 in
10:59 76.8 °F 67.5 °F 30.15 in SSW 4.0 mph 9.0 mph 73 % 0.00 in
11:04 76.8 °F 67.5 °F 30.15 in SSW 4.0 mph 7.0 mph 73 % 0.00 in
11:09 76.8 °F 66.7 °F 30.15 in South 5.0 mph 8.0 mph 71 % 0.00 in
11:14 76.6 °F 65.3 °F 30.16 in SE 3.0 mph 10.0 mph 68 % 0.00 in
11:19 76.8 °F 67.5 °F 30.16 in SSW 4.0 mph 10.0 mph 73 % 0.00 in
11:20 77.0 °F 67.3 °F 30.16 in SW 2.0 mph 10.0 mph 72 % 0.00 in
11:25 76.8 °F 66.2 °F 30.16 in SW 3.0 mph 7.0 mph 70 % 0.00 in
11:30 76.6 °F 67.3 °F 30.16 in West 5.0 mph 7.0 mph 73 % 0.00 in
11:35 76.6 °F 66.6 °F 30.16 in SSW 2.0 mph 7.0 mph 71 % 0.00 in
11:40 77.0 °F 67.3 °F 30.16 in SE 5.0 mph 7.0 mph 72 % 0.00 in
11:45 77.5 °F 66.9 °F 30.16 in SSW 3.0 mph 10.0 mph 70 % 0.00 in
11:46 77.7 °F 67.1 °F 30.16 in SE 2.0 mph 10.0 mph 70 % 0.00 in
11:51 78.3 °F 67.3 °F 30.16 in SE 4.0 mph 10.0 mph 69 % 0.00 in
11:56 78.4 °F 66.2 °F 30.16 in Calm   10.0 mph 66 % 0.00 in
12:01 78.1 °F 66.2 °F 30.16 in SW 2.0 mph 9.0 mph 67 % 0.00 in
12:06 77.9 °F 66.6 °F 30.15 in SSE 4.0 mph 8.0 mph 68 % 0.00 in
12:11 78.6 °F 66.4 °F 30.15 in WSW 7.0 mph 8.0 mph 66 % 0.00 in
12:16 79.2 °F 66.7 °F 30.15 in SW 4.0 mph 8.0 mph 66 % 0.00 in
12:21 79.5 °F 65.3 °F 30.15 in SSE 3.0 mph 9.0 mph 62 % 0.00 in
12:26 79.9 °F 66.6 °F 30.14 in SW 2.0 mph 9.0 mph 64 % 0.00 in
12:31 80.4 °F 68.0 °F 30.14 in SSW 1.0 mph 10.0 mph 66 % 0.00 in
12:36 80.2 °F 65.1 °F 30.14 in SW 3.0 mph 10.0 mph 60 % 0.00 in
12:41 80.2 °F 65.5 °F 30.14 in SE 5.0 mph 11.0 mph 61 % 0.00 in
12:51 81.0 °F 65.8 °F 30.14 in South 7.0 mph 11.0 mph 60 % 0.00 in
12:56 81.1 °F 64.4 °F 30.14 in SE 11.0 mph 11.0 mph 57 % 0.00 in
13:01 81.0 °F 66.7 °F 30.14 in SW 5.0 mph 14.0 mph 62 % 0.00 in
13:06 81.1 °F 64.0 °F 30.14 in ESE 5.0 mph 14.0 mph 56 % 0.00 in
13:11 81.3 °F 65.1 °F 30.14 in SSE 4.0 mph 14.0 mph 58 % 0.00 in
13:16 81.0 °F 64.2 °F 30.13 in SE 2.0 mph 11.0 mph 57 % 0.00 in
13:21 81.0 °F 65.3 °F 30.13 in SSW 3.0 mph 10.0 mph 59 % 0.00 in
13:26 81.7 °F 65.5 °F 30.13 in ESE 3.0 mph 9.0 mph 58 % 0.00 in
13:31 81.9 °F 64.0 °F 30.13 in South 8.0 mph 8.0 mph 55 % 0.00 in
13:36 82.0 °F 63.7 °F 30.12 in Calm   11.0 mph 54 % 0.00 in
13:41 82.6 °F 64.8 °F 30.12 in SSW 3.0 mph 11.0 mph 55 % 0.00 in
13:46 82.8 °F 64.4 °F 30.12 in SSE 6.0 mph 11.0 mph 54 % 0.00 in
13:51 82.6 °F 64.8 °F 30.12 in SW 2.0 mph 12.0 mph 55 % 0.00 in
13:56 83.1 °F 65.8 °F 30.11 in South 3.0 mph 12.0 mph 56 % 0.00 in
14:01 82.9 °F 64.0 °F 30.11 in ESE 5.0 mph 12.0 mph 53 % 0.00 in
14:06 82.4 °F 63.0 °F 30.11 in SSW 5.0 mph 11.0 mph 52 % 0.00 in
14:11 82.2 °F 62.2 °F 30.11 in SSW 7.0 mph 11.0 mph 51 % 0.00 in
14:17 82.4 °F 63.5 °F 30.10 in ESE 5.0 mph 11.0 mph 53 % 0.00 in
14:22 82.8 °F 62.8 °F 30.10 in SE 10.0 mph 10.0 mph 51 % 0.00 in
14:25 82.8 °F 59.9 °F 30.10 in SSE 3.0 mph 14.0 mph 46 % 0.00 in
14:27 82.8 °F 63.3 °F 30.10 in SSW 7.0 mph 14.0 mph 52 % 0.00 in
14:29 82.8 °F 62.2 °F 30.10 in SSW 5.0 mph 14.0 mph 50 % 0.00 in
14:31 82.9 °F 63.0 °F 30.10 in SSW 6.0 mph 14.0 mph 51 % 0.00 in
14:36 83.1 °F 62.6 °F 30.09 in South 4.0 mph 14.0 mph 50 % 0.00 in
14:37 83.1 °F 62.6 °F 30.09 in SSW 6.0 mph 14.0 mph 50 % 0.00 in
14:38 83.1 °F 62.1 °F 30.09 in SSE 5.0 mph 14.0 mph 49 % 0.00 in
14:39 83.1 °F 62.1 °F 30.09 in South 6.0 mph 14.0 mph 49 % 0.00 in
14:44 83.5 °F 63.0 °F 30.09 in SSE 5.0 mph 12.0 mph 50 % 0.00 in
14:49 83.7 °F 63.7 °F 30.09 in SSE 6.0 mph 12.0 mph 51 % 0.00 in
14:54 83.5 °F 63.5 °F 30.09 in SW 5.0 mph 13.0 mph 51 % 0.00 in
14:57 83.7 °F 64.2 °F 30.09 in SE 4.0 mph 13.0 mph 52 % 0.00 in
15:02 84.0 °F 61.7 °F 30.08 in SSE 4.0 mph 13.0 mph 47 % 0.00 in
15:03 83.8 °F 63.1 °F 30.09 in SSW 2.0 mph 13.0 mph 50 % 0.00 in
15:07 84.0 °F 62.8 °F 30.08 in SSE 4.0 mph 11.0 mph 49 % 0.00 in
15:08 84.2 °F 64.0 °F 30.08 in SW 7.0 mph 11.0 mph 51 % 0.00 in
15:13 84.0 °F 62.8 °F 30.08 in SSE 7.0 mph 10.0 mph 49 % 0.00 in
15:18 83.8 °F 63.1 °F 30.08 in WSW 3.0 mph 11.0 mph 50 % 0.00 in
15:23 84.2 °F 63.0 °F 30.08 in SW 7.0 mph 11.0 mph 49 % 0.00 in
15:28 84.4 °F 64.2 °F 30.07 in South 5.0 mph 13.0 mph 51 % 0.00 in
15:33 84.4 °F 63.1 °F 30.07 in WSW 5.0 mph 13.0 mph 49 % 0.00 in
15:36 84.4 °F 64.2 °F 30.07 in ESE 5.0 mph 13.0 mph 51 % 0.00 in
15:41 84.2 °F 62.4 °F 30.07 in SSE 5.0 mph 9.0 mph 48 % 0.00 in
15:46 84.6 °F 62.1 °F 30.07 in South 8.0 mph 9.0 mph 47 % 0.00 in
15:51 84.7 °F 62.2 °F 30.07 in SE 2.0 mph 10.0 mph 47 % 0.00 in
15:56 85.3 °F 62.2 °F 30.06 in South 5.0 mph 10.0 mph 46 % 0.00 in
16:01 85.5 °F 62.2 °F 30.06 in SW 6.0 mph 10.0 mph 46 % 0.00 in
16:06 85.3 °F 61.0 °F 30.06 in SSE 2.0 mph 12.0 mph 44 % 0.00 in
16:08 85.1 °F 60.8 °F 30.06 in ESE 3.0 mph 12.0 mph 44 % 0.00 in
16:11 84.7 °F 61.7 °F 30.06 in SSW 3.0 mph 12.0 mph 46 % 0.00 in
16:17 84.6 °F 60.8 °F 30.06 in ESE 7.0 mph 12.0 mph 45 % 0.00 in
16:22 84.7 °F 61.0 °F 30.06 in South 9.0 mph 13.0 mph 45 % 0.00 in
16:27 84.4 °F 61.3 °F 30.06 in SSW 7.0 mph 13.0 mph 46 % 0.00 in
16:32 83.8 °F 60.3 °F 30.06 in SE 3.0 mph 13.0 mph 45 % 0.00 in
16:37 84.0 °F 60.4 °F 30.06 in SSE 5.0 mph 12.0 mph 45 % 0.00 in
16:42 84.2 °F 61.7 °F 30.06 in WSW 7.0 mph 12.0 mph 47 % 0.00 in
16:47 84.2 °F 61.7 °F 30.05 in SE 2.0 mph 12.0 mph 47 % 0.00 in
16:52 84.6 °F 62.1 °F 30.05 in South 4.0 mph 11.0 mph 47 % 0.00 in
16:57 84.7 °F 62.2 °F 30.05 in SSW 7.0 mph 11.0 mph 47 % 0.00 in
17:02 84.6 °F 61.5 °F 30.05 in SE 3.0 mph 11.0 mph 46 % 0.00 in
17:04 84.6 °F 61.5 °F 30.05 in South 3.0 mph 11.0 mph 46 % 0.00 in
17:09 84.7 °F 62.2 °F 30.05 in SSW 6.0 mph 11.0 mph 47 % 0.00 in
17:14 84.2 °F 61.2 °F 30.05 in SSE 2.0 mph 11.0 mph 46 % 0.00 in
17:19 83.7 °F 61.3 °F 30.05 in South 4.0 mph 11.0 mph 47 % 0.00 in
17:24 83.7 °F 61.3 °F 30.05 in SW 6.0 mph 11.0 mph 47 % 0.00 in
17:29 83.8 °F 61.5 °F 30.05 in WSW 3.0 mph 11.0 mph 47 % 0.00 in
17:35 84.4 °F 61.3 °F 30.05 in South 5.0 mph 9.0 mph 46 % 0.00 in
17:39 84.2 °F 61.2 °F 30.05 in SE 4.0 mph 9.0 mph 46 % 0.00 in
17:45 84.0 °F 62.2 °F 30.05 in Calm   10.0 mph 48 % 0.00 in
17:50 84.0 °F 60.4 °F 30.05 in SSE 5.0 mph 10.0 mph 45 % 0.00 in
17:52 84.0 °F 61.0 °F 30.05 in South 3.0 mph 12.0 mph 46 % 0.00 in
17:57 84.0 °F 61.0 °F 30.05 in SSW 4.0 mph 12.0 mph 46 % 0.00 in
18:02 83.7 °F 61.3 °F 30.05 in SSW 3.0 mph 12.0 mph 47 % 0.00 in
18:07 83.7 °F 60.6 °F 30.05 in SE 8.0 mph 12.0 mph 46 % 0.00 in
18:12 83.5 °F 59.9 °F 30.05 in SSW 7.0 mph 12.0 mph 45 % 0.00 in
18:17 83.5 °F 59.9 °F 30.05 in South 5.0 mph 11.0 mph 45 % 0.00 in
18:22 83.5 °F 60.4 °F 30.05 in SSW 4.0 mph 9.0 mph 46 % 0.00 in
18:27 83.1 °F 60.8 °F 30.05 in SSW 3.0 mph 9.0 mph 47 % 0.00 in
18:32 83.1 °F 61.3 °F 30.05 in SSW 3.0 mph 9.0 mph 48 % 0.00 in
18:37 83.1 °F 61.3 °F 30.06 in South 3.0 mph 8.0 mph 48 % 0.00 in
18:42 82.9 °F 61.9 °F 30.06 in SSW 7.0 mph 7.0 mph 49 % 0.00 in
18:47 82.8 °F 61.7 °F 30.06 in South 5.0 mph 8.0 mph 49 % 0.00 in
18:52 82.6 °F 61.5 °F 30.06 in SE 6.0 mph 11.0 mph 49 % 0.00 in
18:57 82.4 °F 61.3 °F 30.06 in SSE 3.0 mph 11.0 mph 49 % 0.00 in
19:02 82.2 °F 61.2 °F 30.06 in SSW 2.0 mph 11.0 mph 49 % 0.00 in
19:07 81.9 °F 60.3 °F 30.06 in South 1.0 mph 7.0 mph 48 % 0.00 in
19:12 81.7 °F 60.6 °F 30.06 in South 3.0 mph 7.0 mph 49 % 0.00 in
19:18 81.0 °F 60.1 °F 30.06 in South 3.0 mph 7.0 mph 49 % 0.00 in
19:23 80.4 °F 60.6 °F 30.06 in SSW 2.0 mph 6.0 mph 51 % 0.00 in
19:28 80.1 °F 60.3 °F 30.06 in South 3.0 mph 6.0 mph 51 % 0.00 in
19:33 79.7 °F 60.4 °F 30.06 in South 4.0 mph 6.0 mph 52 % 0.00 in
19:38 79.3 °F 60.8 °F 30.06 in South 2.0 mph 4.0 mph 53 % 0.00 in
19:43 79.0 °F 60.4 °F 30.06 in SSE 3.0 mph 6.0 mph 53 % 0.00 in
19:48 78.6 °F 60.6 °F 30.06 in South 1.0 mph 6.0 mph 54 % 0.00 in
19:53 78.4 °F 60.4 °F 30.06 in South 1.0 mph 6.0 mph 54 % 0.00 in
19:58 78.3 °F 60.8 °F 30.06 in SSE 1.0 mph 5.0 mph 55 % 0.00 in
20:03 77.9 °F 61.0 °F 30.07 in SSW 1.0 mph 4.0 mph 56 % 0.00 in
20:08 77.5 °F 61.5 °F 30.07 in SSE 5.0 mph 5.0 mph 58 % 0.00 in
20:13 77.5 °F 62.1 °F 30.07 in SSW 3.0 mph 6.0 mph 59 % 0.00 in
20:18 77.5 °F 63.9 °F 30.07 in South 7.0 mph 7.0 mph 63 % 0.00 in
20:28 77.2 °F 66.2 °F 30.08 in South 3.0 mph 11.0 mph 69 % 0.00 in
20:33 76.8 °F 66.7 °F 30.08 in ESE 7.0 mph 11.0 mph 71 % 0.00 in
20:38 76.5 °F 66.7 °F 30.08 in ESE 7.0 mph 13.0 mph 72 % 0.00 in
20:43 76.1 °F 66.7 °F 30.08 in South 7.0 mph 13.0 mph 73 % 0.00 in
20:48 75.7 °F 66.9 °F 30.08 in South 6.0 mph 13.0 mph 74 % 0.00 in
20:53 75.6 °F 67.1 °F 30.08 in ESE 9.0 mph 13.0 mph 75 % 0.00 in
20:58 75.2 °F 67.1 °F 30.08 in SE 5.0 mph 13.0 mph 76 % 0.00 in
21:03 74.8 °F 66.7 °F 30.08 in SE 4.0 mph 13.0 mph 76 % 0.00 in
21:08 74.7 °F 66.9 °F 30.09 in SSE 5.0 mph 11.0 mph 77 % 0.00 in
21:13 74.5 °F 67.1 °F 30.09 in South 6.0 mph 15.0 mph 78 % 0.00 in
21:18 74.1 °F 66.7 °F 30.10 in SE 5.0 mph 15.0 mph 78 % 0.00 in
21:23 73.9 °F 67.1 °F 30.10 in SSE 7.0 mph 15.0 mph 79 % 0.00 in
21:28 73.6 °F 66.7 °F 30.10 in SSE 5.0 mph 11.0 mph 79 % 0.00 in
21:33 73.4 °F 66.9 °F 30.10 in SSE 6.0 mph 11.0 mph 80 % 0.00 in
21:38 73.2 °F 66.7 °F 30.11 in SSE 4.0 mph 11.0 mph 80 % 0.00 in
21:40 73.2 °F 66.7 °F 30.11 in SSE 4.0 mph 11.0 mph 80 % 0.00 in
21:45 72.9 °F 66.7 °F 30.11 in SE 4.0 mph 11.0 mph 81 % 0.00 in
21:50 72.9 °F 67.1 °F 30.11 in SSE 5.0 mph 9.0 mph 82 % 0.00 in
21:55 72.7 °F 66.9 °F 30.11 in SE 4.0 mph 9.0 mph 82 % 0.00 in
22:00 72.7 °F 66.9 °F 30.11 in SSE 3.0 mph 12.0 mph 82 % 0.00 in
22:05 72.3 °F 66.9 °F 30.12 in South 3.0 mph 12.0 mph 83 % 0.00 in
22:10 72.1 °F 66.7 °F 30.12 in SSE 5.0 mph 12.0 mph 83 % 0.00 in
22:15 72.1 °F 66.7 °F 30.12 in SSW 4.0 mph 10.0 mph 83 % 0.00 in
22:20 72.0 °F 66.9 °F 30.12 in SE 2.0 mph 10.0 mph 84 % 0.00 in
22:25 71.8 °F 66.7 °F 30.12 in South 3.0 mph 10.0 mph 84 % 0.00 in
22:30 71.4 °F 66.7 °F 30.12 in SSW 5.0 mph 7.0 mph 85 % 0.00 in
22:35 71.4 °F 66.7 °F 30.12 in SSE 5.0 mph 7.0 mph 85 % 0.00 in
22:40 71.2 °F 66.6 °F 30.13 in South 3.0 mph 7.0 mph 85 % 0.00 in
22:45 71.2 °F 66.9 °F 30.13 in SSE 1.0 mph 7.0 mph 86 % 0.00 in
22:50 71.1 °F 66.7 °F 30.13 in South 2.0 mph 7.0 mph 86 % 0.00 in
22:55 70.9 °F 66.6 °F 30.13 in SSW 4.0 mph 7.0 mph 86 % 0.00 in
23:00 70.9 °F 66.7 °F 30.13 in South 3.0 mph 8.0 mph 87 % 0.00 in
23:05 70.7 °F 66.6 °F 30.14 in SE 4.0 mph 8.0 mph 87 % 0.00 in
23:10 70.7 °F 66.6 °F 30.14 in SSW 3.0 mph 8.0 mph 87 % 0.00 in
23:15 70.5 °F 66.4 °F 30.14 in SSE 6.0 mph 6.0 mph 87 % 0.00 in
23:20 70.3 °F 66.6 °F 30.14 in South 2.0 mph 7.0 mph 88 % 0.00 in
23:25 70.2 °F 66.4 °F 30.14 in SSW 4.0 mph 7.0 mph 88 % 0.00 in
23:30 70.2 °F 66.4 °F 30.14 in SSW 2.0 mph 7.0 mph 88 % 0.00 in
23:35 70.0 °F 66.6 °F 30.14 in South 4.0 mph 6.0 mph 89 % 0.00 in
23:40 70.0 °F 66.6 °F 30.14 in SSE 2.0 mph 7.0 mph 89 % 0.00 in
23:45 69.8 °F 66.4 °F 30.14 in SSW 1.0 mph 7.0 mph 89 % 0.00 in
23:50 69.6 °F 66.6 °F 30.14 in South 1.0 mph 7.0 mph 90 % 0.00 in
23:55 69.6 °F 66.6 °F 30.13 in SE 2.0 mph 5.0 mph 90 % 0.00 in
Spring, Texas: Villages of Bridgestone
Compliments of Weather Underground - 3 mb

Script developed by  Jim McMurry - jmcmurry@mwt.net Adapted for the template by  Wim van der Kuil - Leuven-Template.eu

You find our weather info also at:

UK Metoffice

WeatherCloud

Weather Underground

Mid-South Weather Network

AWEKAS

Citizen Weather Observer Program (CWOP)

HAMweather, WeatherForYou, PWS Weather

Equipment we use:

Weather-station
Davis Vantage Vue

Weather-program
Meteohub

Weather-server
Debian 7.9 x86 (Guest)

Provider
DreamHost

Davis Vantage Vue

Meteohub

Debian 7.9 x86 (Guest)

DreamHost